This is the latest recevied weather packets stored in our database for station/object PY2XH-13. If no packets are shown the sender has not sent any weather packets the latest 10 day(s).
| Time | Temp. | Humidity | Pressure | Rain* | Wind** | Luminosity | Snow |
|---|---|---|---|---|---|---|---|
| 1788583564 | 22.78° C | 65% | 1027.6 hPa | - | - | - | - |
| 1788581765 | 22.78° C | 65% | 1027.5 hPa | - | - | - | - |
| 1788579964 | 22.78° C | 65% | 1028.9 hPa | - | - | - | - |
| 1788578165 | 22.78° C | 65% | 1029.1 hPa | - | - | - | - |
| 1788576365 | 22.78° C | 65% | 1029.2 hPa | - | - | - | - |
| 1788574564 | 22.78° C | 65% | 1029.2 hPa | - | - | - | - |
| 1788572764 | 22.78° C | 66% | 1029.7 hPa | - | - | - | - |
| 1788570965 | 22.22° C | 66% | 1029.8 hPa | - | - | - | - |
| 1788569164 | 22.22° C | 65% | 1030.9 hPa | - | - | - | - |
| 1788567364 | 22.22° C | 67% | 1029.7 hPa | - | - | - | - |
| 1788565565 | 22.22° C | 67% | 1029.5 hPa | - | - | - | - |
| 1788563764 | 21.67° C | 69% | 1030.3 hPa | - | - | - | - |
| 1788561965 | 22.22° C | 68% | 1030.2 hPa | - | - | - | - |
| 1788560164 | 22.22° C | 67% | 1029.7 hPa | - | - | - | - |
| 1788558364 | 22.78° C | 63% | 1029.4 hPa | - | - | - | - |
| 1788556564 | 22.78° C | 63% | 1029.4 hPa | - | - | - | - |
| 1788554764 | 22.78° C | 66% | 1028.6 hPa | - | - | - | - |
| 1788552965 | 23.89° C | 54% | 1027.9 hPa | - | - | - | - |
| 1788551165 | 24.44° C | 45% | 1025.9 hPa | - | - | - | - |
| 1788549365 | 25° C | 38% | 1025.2 hPa | - | - | - | - |
| 1788547565 | 25.56° C | 33% | 1025.5 hPa | - | - | - | - |
| 1788545765 | 25.56° C | 33% | 1025.7 hPa | - | - | - | - |
| 1788543964 | 25° C | 39% | 1026 hPa | - | - | - | - |
| 1788542165 | 23.89° C | 39% | 1026.5 hPa | - | - | - | - |
| 1788540364 | 24.44° C | 36% | 1027 hPa | - | - | - | - |
* Rain since midnight (hover to see other rain measurements)
** Current wind speed in m/s (hover to see current wind gust speed)